^^
B2 Weather Station Historical Data
Daily Summary for March 5, 2019 Units:  English    Metric   Both
Daily Weekly Monthly Yearly Custom
  High: Low: Average:
Temperature: 22.5 °F 8.7 °F 14.8 °F
Dew Point: 7.9 °F 2.1 °F 5 °F
Humidity: 76% 48% 65%
Wind Speed: 25.3mph 3.5mph 13.5mph
Wind Gust: 14.8mph - -
Wind- - West
Pressure: 30.36 in 30.14 in -
Precipitation: 0.00 in    
Historical Graphs
 
 
Tabular Data for March 5, 2019
Time Temperature Dew Point Pressure Wind Wind Speed Wind Gust Humidity Rainfall Rate (Hourly) solar
00:04 9.8 °F 2.9 °F 30.21 in WSW 11.5 mph 8.6 mph 73% 0.00 in 0.00 W/m2
00:09 9.9 °F 3.0 °F 30.21 in WNW 8.1 mph 7.9 mph 73% 0.00 in 0.00 W/m2
00:14 9.8 °F 2.9 °F 30.21 in West 10.4 mph 6.7 mph 73% 0.00 in 0.00 W/m2
00:19 9.7 °F 2.8 °F 30.21 in West 11.0 mph 5.5 mph 73% 0.00 in 0.00 W/m2
00:24 9.6 °F 2.7 °F 30.21 in West 9.2 mph 4.0 mph 73% 0.00 in 0.00 W/m2
00:29 9.5 °F 2.6 °F 30.21 in West 9.2 mph 6.5 mph 73% 0.00 in 0.00 W/m2
00:34 9.4 °F 2.5 °F 30.21 in West 10.4 mph 7.4 mph 73% 0.00 in 0.00 W/m2
00:39 9.4 °F 2.2 °F 30.21 in West 8.1 mph 5.8 mph 72% 0.00 in 0.00 W/m2
00:44 9.4 °F 2.2 °F 30.21 in WSW 9.2 mph 3.0 mph 72% 0.00 in 0.00 W/m2
00:50 9.3 °F 2.1 °F 30.20 in SW 9.2 mph 4.9 mph 72% 0.00 in 0.00 W/m2
00:54 9.3 °F 2.1 °F 30.21 in WSW 9.2 mph 4.2 mph 72% 0.00 in 0.00 W/m2
00:59 9.2 °F 2.3 °F 30.21 in SW 5.8 mph 4.8 mph 73% 0.00 in 0.00 W/m2
01:04 9.2 °F 2.3 °F 30.21 in West 11.5 mph 6.8 mph 73% 0.00 in 0.00 W/m2
01:09 9.2 °F 2.3 °F 30.21 in WSW 12.7 mph 8.4 mph 73% 0.00 in 0.00 W/m2
01:14 9.2 °F 2.3 °F 30.20 in SW 5.8 mph 4.1 mph 73% 0.00 in 0.00 W/m2
01:19 9.0 °F 2.4 °F 30.20 in WSW 6.9 mph 4.0 mph 74% 0.00 in 0.00 W/m2
01:24 8.9 °F 2.3 °F 30.20 in SW 9.2 mph 4.3 mph 74% 0.00 in 0.00 W/m2
01:29 8.8 °F 2.5 °F 30.20 in West 3.5 mph 3.0 mph 75% 0.00 in 0.00 W/m2
01:34 8.7 °F 2.4 °F 30.20 in WSW 10.0 mph 4.4 mph 75% 0.00 in 0.00 W/m2
01:39 8.9 °F 2.6 °F 30.20 in West 9.2 mph 6.7 mph 75% 0.00 in 0.00 W/m2
01:44 8.9 °F 2.6 °F 30.20 in SW 5.8 mph 4.4 mph 75% 0.00 in 0.00 W/m2
01:49 8.8 °F 2.5 °F 30.19 in WSW 9.2 mph 5.6 mph 75% 0.00 in 0.00 W/m2
01:54 8.8 °F 2.5 °F 30.19 in WSW 8.0 mph 6.0 mph 75% 0.00 in 0.00 W/m2
01:59 8.7 °F 2.4 °F 30.19 in SW 8.1 mph 3.7 mph 75% 0.00 in 0.00 W/m2
02:04 8.8 °F 2.5 °F 30.19 in SW 6.9 mph 4.4 mph 75% 0.00 in 0.00 W/m2
02:09 8.8 °F 2.8 °F 30.18 in WSW 6.9 mph 4.6 mph 76% 0.00 in 0.00 W/m2
02:14 8.9 °F 2.9 °F 30.18 in SSW 9.0 mph 5.9 mph 76% 0.00 in 0.00 W/m2
02:19 8.9 °F 2.9 °F 30.18 in WSW 9.2 mph 5.9 mph 76% 0.00 in 0.00 W/m2
02:24 9.0 °F 2.7 °F 30.18 in WSW 9.2 mph 5.1 mph 75% 0.00 in 0.00 W/m2
02:29 9.1 °F 2.8 °F 30.17 in WSW 11.5 mph 6.0 mph 75% 0.00 in 0.00 W/m2
02:34 9.2 °F 2.9 °F 30.17 in WSW 12.7 mph 8.1 mph 75% 0.00 in 0.00 W/m2
02:39 9.3 °F 2.7 °F 30.17 in WSW 10.4 mph 6.9 mph 74% 0.00 in 0.00 W/m2
02:44 9.3 °F 2.7 °F 30.17 in SW 11.5 mph 7.4 mph 74% 0.00 in 0.00 W/m2
02:49 9.3 °F 2.7 °F 30.16 in SW 11.5 mph 6.9 mph 74% 0.00 in 0.00 W/m2
02:54 9.3 °F 2.7 °F 30.16 in WSW 11.5 mph 7.2 mph 74% 0.00 in 0.00 W/m2
02:59 9.3 °F 2.7 °F 30.16 in SW 11.5 mph 9.4 mph 74% 0.00 in 0.00 W/m2
03:04 9.4 °F 2.8 °F 30.16 in WSW 11.5 mph 7.5 mph 74% 0.00 in 0.00 W/m2
03:09 9.3 °F 2.7 °F 30.15 in West 12.7 mph 9.0 mph 74% 0.00 in 0.00 W/m2
03:14 9.4 °F 2.8 °F 30.15 in SW 11.5 mph 10.1 mph 74% 0.00 in 0.00 W/m2
03:19 9.4 °F 2.8 °F 30.15 in SW 10.4 mph 5.4 mph 74% 0.00 in 0.00 W/m2
03:24 9.4 °F 2.8 °F 30.15 in SSW 15.0 mph 9.8 mph 74% 0.00 in 0.00 W/m2
03:29 9.4 °F 2.8 °F 30.15 in SW 11.0 mph 6.5 mph 74% 0.00 in 0.00 W/m2
03:34 9.4 °F 2.8 °F 30.14 in SSW 13.8 mph 8.9 mph 74% 0.00 in 0.00 W/m2
03:39 9.3 °F 2.7 °F 30.14 in WSW 13.8 mph 8.4 mph 74% 0.00 in 0.00 W/m2
03:44 9.2 °F 2.9 °F 30.14 in SSW 11.5 mph 8.5 mph 75% 0.00 in 0.00 W/m2
03:49 9.2 °F 2.9 °F 30.14 in WSW 14.0 mph 9.0 mph 75% 0.00 in 0.00 W/m2
03:54 9.1 °F 2.8 °F 30.14 in WSW 13.8 mph 7.9 mph 75% 0.00 in 0.00 W/m2
03:59 9.1 °F 2.8 °F 30.15 in SW 14.0 mph 9.2 mph 75% 0.00 in 0.00 W/m2
04:04 9.0 °F 2.7 °F 30.15 in SW 11.5 mph 5.8 mph 75% 0.00 in 0.00 W/m2
04:09 9.0 °F 2.7 °F 30.14 in WSW 11.5 mph 9.0 mph 75% 0.00 in 0.00 W/m2
04:14 9.1 °F 3.1 °F 30.14 in WSW 11.5 mph 8.3 mph 76% 0.00 in 0.00 W/m2
04:19 9.1 °F 3.1 °F 30.14 in WSW 12.7 mph 8.1 mph 76% 0.00 in 0.00 W/m2
04:24 9.1 °F 3.1 °F 30.14 in SW 12.7 mph 7.0 mph 76% 0.00 in 0.00 W/m2
04:29 9.1 °F 3.1 °F 30.14 in WSW 9.2 mph 5.5 mph 76% 0.00 in 0.00 W/m2
04:34 9.1 °F 3.1 °F 30.15 in WSW 11.5 mph 6.3 mph 76% 0.00 in 0.00 W/m2
04:39 9.1 °F 3.1 °F 30.15 in WSW 10.4 mph 6.8 mph 76% 0.00 in 0.00 W/m2
04:44 9.2 °F 3.2 °F 30.15 in WSW 17.3 mph 9.4 mph 76% 0.00 in 0.00 W/m2
04:49 9.2 °F 2.9 °F 30.15 in SW 11.5 mph 8.6 mph 75% 0.00 in 0.00 W/m2
04:54 9.3 °F 3.0 °F 30.15 in WSW 11.5 mph 7.6 mph 75% 0.00 in 0.00 W/m2
04:59 9.3 °F 3.0 °F 30.15 in WSW 13.8 mph 8.4 mph 75% 0.00 in 0.00 W/m2
05:04 9.3 °F 3.0 °F 30.15 in WSW 16.1 mph 8.1 mph 75% 0.00 in 0.00 W/m2
05:09 9.4 °F 2.8 °F 30.15 in WNW 10.0 mph 7.1 mph 74% 0.00 in 0.00 W/m2
05:14 9.4 °F 2.8 °F 30.15 in SW 16.1 mph 9.0 mph 74% 0.00 in 0.00 W/m2
05:19 9.5 °F 2.9 °F 30.14 in SSW 11.5 mph 9.5 mph 74% 0.00 in 0.00 W/m2
05:24 9.6 °F 3.0 °F 30.14 in SW 13.8 mph 10.9 mph 74% 0.00 in 0.00 W/m2
05:29 9.7 °F 3.1 °F 30.14 in WSW 10.4 mph 6.3 mph 74% 0.00 in 0.00 W/m2
05:34 9.8 °F 3.2 °F 30.14 in West 11.5 mph 8.9 mph 74% 0.00 in 0.00 W/m2
05:39 9.8 °F 2.9 °F 30.14 in WSW 8.1 mph 6.5 mph 73% 0.00 in 0.00 W/m2
05:44 9.9 °F 3.0 °F 30.14 in West 16.1 mph 9.8 mph 73% 0.00 in 0.00 W/m2
05:49 9.9 °F 3.0 °F 30.14 in WSW 18.4 mph 12.2 mph 73% 0.00 in 0.00 W/m2
05:54 10.0 °F 3.1 °F 30.14 in SW 17.3 mph 9.2 mph 73% 0.00 in 0.00 W/m2
05:59 10.0 °F 3.1 °F 30.14 in West 9.2 mph 7.2 mph 73% 0.00 in 0.00 W/m2
06:04 10.0 °F 3.4 °F 30.14 in WSW 9.2 mph 3.9 mph 74% 0.00 in 0.00 W/m2
06:09 9.9 °F 3.6 °F 30.14 in WSW 13.8 mph 9.0 mph 75% 0.00 in 0.00 W/m2
06:14 9.9 °F 3.8 °F 30.14 in West 11.5 mph 8.7 mph 76% 0.00 in 0.00 W/m2
06:19 9.9 °F 3.8 °F 30.14 in West 12.7 mph 7.8 mph 76% 0.00 in 0.00 W/m2
06:24 9.8 °F 3.7 °F 30.14 in SW 11.5 mph 6.2 mph 76% 0.00 in 0.00 W/m2
06:29 9.8 °F 3.5 °F 30.14 in West 13.8 mph 8.8 mph 75% 0.00 in 5.00 W/m2
06:34 9.6 °F 3.3 °F 30.14 in WSW 9.2 mph 4.9 mph 75% 0.00 in 9.00 W/m2
06:39 9.6 °F 3.6 °F 30.14 in WSW 10.4 mph 7.0 mph 76% 0.00 in 18.00 W/m2
06:44 9.7 °F 3.4 °F 30.14 in WSW 15.0 mph 7.6 mph 75% 0.00 in 26.00 W/m2
06:49 9.8 °F 3.5 °F 30.14 in WSW 15.0 mph 5.5 mph 75% 0.00 in 32.00 W/m2
06:54 9.9 °F 3.6 °F 30.14 in WSW 8.0 mph 5.9 mph 75% 0.00 in 51.00 W/m2
06:59 10.1 °F 3.8 °F 30.14 in West 11.5 mph 4.5 mph 75% 0.00 in 74.00 W/m2
07:04 10.3 °F 3.9 °F 30.15 in WSW 10.0 mph 8.5 mph 75% 0.00 in 67.00 W/m2
07:09 10.4 °F 4.0 °F 30.14 in SSW 12.0 mph 10.9 mph 75% 0.00 in 67.00 W/m2
07:14 10.4 °F 3.8 °F 30.15 in WSW 12.7 mph 8.3 mph 74% 0.00 in 72.00 W/m2
07:19 10.6 °F 3.9 °F 30.15 in NW 11.5 mph 7.3 mph 74% 0.00 in 84.00 W/m2
07:24 10.7 °F 4.0 °F 30.15 in West 14.0 mph 7.6 mph 74% 0.00 in 118.00 W/m2
07:29 10.8 °F 4.1 °F 30.16 in West 13.8 mph 6.5 mph 74% 0.00 in 127.00 W/m2
07:34 11.0 °F 4.3 °F 30.16 in West 12.7 mph 4.9 mph 74% 0.00 in 84.00 W/m2
07:39 11.0 °F 4.3 °F 30.16 in WSW 10.4 mph 7.5 mph 74% 0.00 in 100.00 W/m2
07:44 11.1 °F 4.4 °F 30.16 in West 11.5 mph 7.9 mph 74% 0.00 in 153.00 W/m2
07:49 11.3 °F 4.6 °F 30.16 in WSW 15.0 mph 10.3 mph 74% 0.00 in 160.00 W/m2
07:54 11.5 °F 4.8 °F 30.16 in WSW 11.5 mph 8.0 mph 74% 0.00 in 155.00 W/m2
07:59 11.7 °F 5.0 °F 30.17 in West 9.2 mph 6.1 mph 74% 0.00 in 127.00 W/m2
08:04 11.9 °F 5.2 °F 30.17 in WSW 6.9 mph 2.6 mph 74% 0.00 in 100.00 W/m2
08:09 11.9 °F 4.9 °F 30.17 in West 12.7 mph 7.7 mph 73% 0.00 in 132.00 W/m2
08:14 12.0 °F 5.3 °F 30.17 in SSW 6.9 mph 5.8 mph 74% 0.00 in 214.00 W/m2
08:19 12.2 °F 5.5 °F 30.17 in WSW 11.5 mph 7.0 mph 74% 0.00 in 163.00 W/m2
08:24 12.5 °F 5.5 °F 30.18 in NW 11.5 mph 5.5 mph 73% 0.00 in 155.00 W/m2
08:29 12.5 °F 5.5 °F 30.18 in WSW 11.5 mph 8.7 mph 73% 0.00 in 151.00 W/m2
08:34 12.4 °F 5.7 °F 30.18 in West 13.0 mph 7.5 mph 74% 0.00 in 146.00 W/m2
08:39 12.5 °F 5.8 °F 30.18 in WSW 11.5 mph 7.0 mph 74% 0.00 in 267.00 W/m2
08:44 12.8 °F 6.1 °F 30.18 in NW 9.2 mph 6.3 mph 74% 0.00 in 192.00 W/m2
08:49 13.0 °F 5.7 °F 30.18 in West 18.4 mph 7.3 mph 72% 0.00 in 429.00 W/m2
08:54 13.4 °F 6.1 °F 30.18 in WNW 11.5 mph 3.9 mph 72% 0.00 in 218.00 W/m2
08:59 13.5 °F 6.1 °F 30.18 in West 9.2 mph 9.2 mph 72% 0.00 in 195.00 W/m2
09:04 13.8 °F 6.4 °F 30.18 in WSW 13.8 mph 8.9 mph 72% 0.00 in 554.00 W/m2
09:09 14.1 °F 6.4 °F 30.18 in West 11.5 mph 10.7 mph 71% 0.00 in 462.00 W/m2
09:14 14.2 °F 6.5 °F 30.18 in WSW 12.0 mph 7.3 mph 71% 0.00 in 288.00 W/m2
09:19 14.5 °F 6.8 °F 30.18 in West 15.0 mph 9.4 mph 71% 0.00 in 538.00 W/m2
09:24 14.5 °F 6.5 °F 30.19 in SW 11.5 mph 7.7 mph 70% 0.00 in 239.00 W/m2
09:29 14.3 °F 6.3 °F 30.19 in West 12.7 mph 8.0 mph 70% 0.00 in 227.00 W/m2
09:34 14.4 °F 6.4 °F 30.19 in WNW 13.8 mph 6.6 mph 70% 0.00 in 236.00 W/m2
09:39 14.5 °F 6.2 °F 30.19 in West 13.0 mph 5.9 mph 69% 0.00 in 255.00 W/m2
09:44 14.7 °F 6.7 °F 30.19 in West 12.0 mph 6.7 mph 70% 0.00 in 315.00 W/m2
09:49 14.6 °F 6.0 °F 30.19 in West 11.5 mph 5.9 mph 68% 0.00 in 323.00 W/m2
09:54 15.0 °F 6.3 °F 30.19 in WNW 16.1 mph 8.8 mph 68% 0.00 in 248.00 W/m2
09:59 15.2 °F 6.5 °F 30.19 in SSW 11.5 mph 8.8 mph 68% 0.00 in 411.00 W/m2
10:04 15.0 °F 6.0 °F 30.19 in WNW 17.3 mph 8.5 mph 67% 0.00 in 348.00 W/m2
10:09 15.5 °F 6.8 °F 30.19 in West 16.1 mph 8.5 mph 68% 0.00 in 784.00 W/m2
10:14 16.2 °F 6.8 °F 30.19 in West 12.7 mph 8.7 mph 66% 0.00 in 246.00 W/m2
10:19 16.0 °F 6.6 °F 30.19 in WNW 11.5 mph 7.6 mph 66% 0.00 in 824.00 W/m2
10:24 16.0 °F 6.6 °F 30.20 in West 13.8 mph 7.8 mph 66% 0.00 in 244.00 W/m2
10:29 15.9 °F 6.5 °F 30.20 in WSW 10.4 mph 4.4 mph 66% 0.00 in 336.00 W/m2
10:34 16.3 °F 6.6 °F 30.20 in West 15.0 mph 8.2 mph 65% 0.00 in 900.00 W/m2
10:39 16.8 °F 7.1 °F 30.20 in West 9.2 mph 8.1 mph 65% 0.00 in 179.00 W/m2
10:44 17.5 °F 7.4 °F 30.20 in West 13.0 mph 9.0 mph 64% 0.00 in 868.00 W/m2
10:49 17.2 °F 6.0 °F 30.21 in WNW 11.5 mph 8.8 mph 61% 0.00 in 287.00 W/m2
10:54 17.3 °F 6.5 °F 30.21 in WNW 13.8 mph 9.0 mph 62% 0.00 in 287.00 W/m2
10:59 17.3 °F 6.5 °F 30.21 in NW 12.7 mph 7.0 mph 62% 0.00 in 278.00 W/m2
11:04 17.2 °F 5.7 °F 30.21 in WNW 13.8 mph 11.3 mph 60% 0.00 in 846.00 W/m2
11:09 17.4 °F 5.5 °F 30.22 in NNW 11.5 mph 6.7 mph 59% 0.00 in 283.00 W/m2
11:14 17.0 °F 5.5 °F 30.22 in WNW 12.7 mph 11.4 mph 60% 0.00 in 250.00 W/m2
11:19 17.1 °F 5.9 °F 30.22 in NW 11.5 mph 9.5 mph 61% 0.00 in 297.00 W/m2
11:24 17.8 °F 6.2 °F 30.22 in WSW 13.8 mph 8.1 mph 60% 0.00 in 905.00 W/m2
11:29 18.5 °F 6.2 °F 30.22 in NNW 15.0 mph 9.6 mph 58% 0.00 in 895.00 W/m2
11:34 18.4 °F 5.7 °F 30.22 in West 13.8 mph 9.0 mph 57% 0.00 in 329.00 W/m2
11:39 18.5 °F 5.8 °F 30.22 in NNW 17.3 mph 8.4 mph 57% 0.00 in 271.00 W/m2
11:44 18.3 °F 5.6 °F 30.22 in West 11.5 mph 8.7 mph 57% 0.00 in 911.00 W/m2
11:49 19.1 °F 6.3 °F 30.22 in West 12.7 mph 6.2 mph 57% 0.00 in 939.00 W/m2
11:54 20.4 °F 7.6 °F 30.22 in NW 15.0 mph 7.5 mph 57% 0.00 in 969.00 W/m2
11:59 20.6 °F 7.0 °F 30.22 in NW 15.0 mph 8.4 mph 55% 0.00 in 909.00 W/m2
12:04 20.1 °F 5.7 °F 30.22 in WSW 15.0 mph 11.7 mph 53% 0.00 in 826.00 W/m2
12:09 20.3 °F 6.7 °F 30.22 in West 16.1 mph 8.8 mph 55% 0.00 in 849.00 W/m2
12:14 20.7 °F 7.1 °F 30.22 in NW 17.3 mph 8.7 mph 55% 0.00 in 918.00 W/m2
12:19 21.7 °F 7.2 °F 30.22 in NW 10.4 mph 8.1 mph 53% 0.00 in 937.00 W/m2
12:24 21.5 °F 6.1 °F 30.22 in WNW 11.5 mph 6.0 mph 51% 0.00 in 969.00 W/m2
12:29 21.1 °F 6.6 °F 30.22 in NW 16.1 mph 9.9 mph 53% 0.00 in 882.00 W/m2
12:34 19.8 °F 5.0 °F 30.23 in WSW 15.0 mph 7.1 mph 52% 0.00 in 320.00 W/m2
12:39 20.2 °F 6.2 °F 30.22 in WSW 17.0 mph 10.1 mph 54% 0.00 in 895.00 W/m2
12:44 20.9 °F 6.4 °F 30.22 in WNW 12.7 mph 7.2 mph 53% 0.00 in 895.00 W/m2
12:49 20.6 °F 5.3 °F 30.23 in West 13.8 mph 5.5 mph 51% 0.00 in 861.00 W/m2
12:54 20.9 °F 6.0 °F 30.22 in WNW 11.5 mph 9.2 mph 52% 0.00 in 229.00 W/m2
12:59 20.5 °F 6.1 °F 30.22 in NW 10.4 mph 7.1 mph 53% 0.00 in 886.00 W/m2
13:04 21.2 °F 6.3 °F 30.22 in NW 13.8 mph 10.6 mph 52% 0.00 in 891.00 W/m2
13:09 21.7 °F 5.9 °F 30.22 in West 18.4 mph 12.0 mph 50% 0.00 in 858.00 W/m2
13:14 21.9 °F 5.2 °F 30.22 in West 17.3 mph 10.4 mph 48% 0.00 in 828.00 W/m2
13:19 21.5 °F 5.3 °F 30.22 in WNW 17.3 mph 11.0 mph 49% 0.00 in 763.00 W/m2
13:24 21.7 °F 5.9 °F 30.22 in NW 13.8 mph 8.2 mph 50% 0.00 in 773.00 W/m2
13:29 21.7 °F 5.5 °F 30.23 in NW 16.1 mph 6.9 mph 49% 0.00 in 378.00 W/m2
13:34 21.5 °F 5.3 °F 30.22 in WNW 17.3 mph 11.3 mph 49% 0.00 in 246.00 W/m2
13:39 21.2 °F 5.4 °F 30.23 in West 11.5 mph 8.2 mph 50% 0.00 in 817.00 W/m2
13:44 21.0 °F 5.2 °F 30.23 in NW 20.7 mph 5.8 mph 50% 0.00 in 350.00 W/m2
13:49 21.1 °F 5.8 °F 30.22 in NW 11.5 mph 7.8 mph 51% 0.00 in 738.00 W/m2
13:54 21.3 °F 5.5 °F 30.22 in West 11.5 mph 8.0 mph 50% 0.00 in 227.00 W/m2
13:59 21.8 °F 5.5 °F 30.22 in WNW 16.1 mph 7.3 mph 49% 0.00 in 700.00 W/m2
14:04 22.2 °F 5.9 °F 30.22 in WSW 15.0 mph 9.8 mph 49% 0.00 in 589.00 W/m2
14:09 21.7 °F 5.0 °F 30.23 in WSW 16.1 mph 6.8 mph 48% 0.00 in 403.00 W/m2
14:14 21.4 °F 5.6 °F 30.23 in WNW 14.0 mph 7.7 mph 50% 0.00 in 309.00 W/m2
14:19 21.8 °F 6.4 °F 30.22 in West 12.7 mph 6.8 mph 51% 0.00 in 737.00 W/m2
14:24 22.0 °F 6.2 °F 30.23 in WNW 15.0 mph 14.0 mph 50% 0.00 in 241.00 W/m2
14:29 21.7 °F 6.3 °F 30.23 in West 16.1 mph 6.2 mph 51% 0.00 in 260.00 W/m2
14:34 22.4 °F 6.5 °F 30.23 in NW 16.1 mph 8.3 mph 50% 0.00 in 717.00 W/m2
14:39 22.5 °F 5.7 °F 30.23 in WSW 16.1 mph 11.3 mph 48% 0.00 in 680.00 W/m2
14:44 22.3 °F 5.6 °F 30.23 in West 20.7 mph 10.6 mph 48% 0.00 in 199.00 W/m2
14:49 21.1 °F 6.2 °F 30.23 in WNW 17.3 mph 10.5 mph 52% 0.00 in 181.00 W/m2
14:54 20.8 °F 5.9 °F 30.23 in West 19.6 mph 10.2 mph 52% 0.00 in 214.00 W/m2
14:59 20.6 °F 6.2 °F 30.23 in NW 18.4 mph 6.2 mph 53% 0.00 in 162.00 W/m2
15:04 20.7 °F 6.2 °F 30.24 in West 12.7 mph 8.4 mph 53% 0.00 in 253.00 W/m2
15:09 20.7 °F 6.7 °F 30.24 in WNW 19.6 mph 12.2 mph 54% 0.00 in 169.00 W/m2
15:14 20.5 °F 6.9 °F 30.24 in WNW 15.0 mph 8.1 mph 55% 0.00 in 165.00 W/m2
15:19 21.2 °F 7.1 °F 30.24 in West 18.4 mph 7.6 mph 54% 0.00 in 543.00 W/m2
15:24 21.2 °F 5.9 °F 30.24 in West 15.0 mph 10.6 mph 51% 0.00 in 223.00 W/m2
15:29 21.3 °F 6.0 °F 30.24 in WSW 12.0 mph 8.1 mph 51% 0.00 in 316.00 W/m2
15:34 21.8 °F 6.8 °F 30.24 in NW 19.6 mph 9.1 mph 52% 0.00 in 468.00 W/m2
15:39 21.7 °F 6.3 °F 30.24 in NW 14.0 mph 10.6 mph 51% 0.00 in 179.00 W/m2
15:44 21.1 °F 5.8 °F 30.25 in SSW 19.6 mph 10.9 mph 51% 0.00 in 202.00 W/m2
15:49 20.5 °F 5.6 °F 30.24 in West 21.9 mph 11.2 mph 52% 0.00 in 123.00 W/m2
15:54 20.3 °F 5.5 °F 30.24 in WNW 18.4 mph 13.8 mph 52% 0.00 in 111.00 W/m2
15:59 20.9 °F 6.0 °F 30.25 in NW 18.4 mph 9.7 mph 52% 0.00 in 392.00 W/m2
16:04 21.6 °F 6.2 °F 30.25 in NW 18.4 mph 6.7 mph 51% 0.00 in 239.00 W/m2
16:09 21.6 °F 6.7 °F 30.25 in SW 19.6 mph 10.9 mph 52% 0.00 in 127.00 W/m2
16:14 20.7 °F 6.7 °F 30.25 in WSW 19.6 mph 9.0 mph 54% 0.00 in 109.00 W/m2
16:19 20.4 °F 6.8 °F 30.25 in NNW 15.0 mph 6.0 mph 55% 0.00 in 155.00 W/m2
16:24 20.8 °F 7.2 °F 30.24 in West 19.0 mph 12.5 mph 55% 0.00 in 162.00 W/m2
16:29 20.6 °F 6.2 °F 30.25 in West 20.7 mph 11.8 mph 53% 0.00 in 86.00 W/m2
16:34 20.2 °F 6.2 °F 30.25 in WNW 11.5 mph 5.0 mph 54% 0.00 in 69.00 W/m2
16:39 19.8 °F 6.2 °F 30.26 in NW 15.0 mph 7.4 mph 55% 0.00 in 72.00 W/m2
16:44 19.7 °F 6.1 °F 30.26 in WNW 13.8 mph 10.3 mph 55% 0.00 in 65.00 W/m2
16:49 19.6 °F 5.6 °F 30.26 in WSW 18.4 mph 10.6 mph 54% 0.00 in 65.00 W/m2
16:54 19.5 °F 5.5 °F 30.26 in West 18.4 mph 10.7 mph 54% 0.00 in 46.00 W/m2
16:59 19.5 °F 5.9 °F 30.25 in West 12.0 mph 11.8 mph 55% 0.00 in 58.00 W/m2
17:04 19.4 °F 5.8 °F 30.26 in NW 21.9 mph 8.6 mph 55% 0.00 in 40.00 W/m2
17:09 19.3 °F 5.7 °F 30.26 in WNW 12.7 mph 9.0 mph 55% 0.00 in 44.00 W/m2
17:14 19.3 °F 5.7 °F 30.26 in WNW 13.8 mph 9.3 mph 55% 0.00 in 25.00 W/m2
17:19 19.0 °F 5.1 °F 30.26 in WNW 13.8 mph 8.8 mph 54% 0.00 in 19.00 W/m2
17:24 18.8 °F 5.3 °F 30.26 in WNW 17.3 mph 8.7 mph 55% 0.00 in 19.00 W/m2
17:29 18.6 °F 5.1 °F 30.26 in WNW 12.7 mph 7.3 mph 55% 0.00 in 14.00 W/m2
17:34 18.4 °F 4.9 °F 30.27 in WSW 17.3 mph 9.9 mph 55% 0.00 in 11.00 W/m2
17:39 18.2 °F 4.7 °F 30.27 in West 18.4 mph 10.5 mph 55% 0.00 in 7.00 W/m2
17:44 18.0 °F 4.9 °F 30.27 in West 13.8 mph 9.0 mph 56% 0.00 in 5.00 W/m2
17:49 17.9 °F 5.2 °F 30.27 in WSW 12.7 mph 9.0 mph 57% 0.00 in 0.00 W/m2
17:54 17.8 °F 4.7 °F 30.27 in WNW 19.6 mph 8.1 mph 56% 0.00 in 0.00 W/m2
17:59 17.7 °F 4.6 °F 30.27 in West 13.8 mph 10.2 mph 56% 0.00 in 0.00 W/m2
18:04 17.7 °F 4.6 °F 30.28 in West 17.3 mph 8.4 mph 56% 0.00 in 0.00 W/m2
18:09 17.6 °F 4.9 °F 30.28 in NW 12.7 mph 8.2 mph 57% 0.00 in 0.00 W/m2
18:14 17.5 °F 4.8 °F 30.28 in WSW 15.0 mph 11.6 mph 57% 0.00 in 0.00 W/m2
18:19 17.6 °F 5.3 °F 30.29 in West 15.0 mph 7.9 mph 58% 0.00 in 0.00 W/m2
18:24 17.6 °F 5.7 °F 30.29 in WNW 18.4 mph 12.5 mph 59% 0.00 in 0.00 W/m2
18:29 17.6 °F 5.7 °F 30.29 in WNW 11.5 mph 9.0 mph 59% 0.00 in 0.00 W/m2
18:34 17.5 °F 6.0 °F 30.29 in West 12.7 mph 8.0 mph 60% 0.00 in 0.00 W/m2
18:39 17.4 °F 6.2 °F 30.30 in West 11.5 mph 5.9 mph 61% 0.00 in 0.00 W/m2
18:44 17.5 °F 6.7 °F 30.30 in WNW 13.8 mph 11.0 mph 62% 0.00 in 0.00 W/m2
18:49 17.5 °F 6.7 °F 30.30 in NW 18.4 mph 11.2 mph 62% 0.00 in 0.00 W/m2
18:54 17.4 °F 6.2 °F 30.30 in SW 12.7 mph 11.0 mph 61% 0.00 in 0.00 W/m2
18:59 17.2 °F 5.7 °F 30.30 in WNW 11.5 mph 8.2 mph 60% 0.00 in 0.00 W/m2
19:04 17.1 °F 5.6 °F 30.30 in SW 11.5 mph 8.4 mph 60% 0.00 in 0.00 W/m2
19:09 17.0 °F 5.5 °F 30.30 in NNW 17.3 mph 7.3 mph 60% 0.00 in 0.00 W/m2
19:14 17.0 °F 5.5 °F 30.30 in NW 25.3 mph 14.8 mph 60% 0.00 in 0.00 W/m2
19:19 16.9 °F 5.8 °F 30.30 in WSW 16.1 mph 9.8 mph 61% 0.00 in 0.00 W/m2
19:24 16.7 °F 5.6 °F 30.30 in West 19.6 mph 11.6 mph 61% 0.00 in 0.00 W/m2
19:29 16.6 °F 6.2 °F 30.31 in NW 12.7 mph 6.5 mph 63% 0.00 in 0.00 W/m2
19:34 16.5 °F 6.1 °F 30.31 in West 12.7 mph 8.9 mph 63% 0.00 in 0.00 W/m2
19:39 16.5 °F 6.1 °F 30.31 in WSW 15.0 mph 7.2 mph 63% 0.00 in 0.00 W/m2
19:44 16.3 °F 6.2 °F 30.31 in NW 19.6 mph 13.3 mph 64% 0.00 in 0.00 W/m2
19:49 16.1 °F 5.7 °F 30.31 in NW 18.4 mph 7.2 mph 63% 0.00 in 0.00 W/m2
19:54 16.1 °F 5.7 °F 30.32 in West 21.9 mph 12.4 mph 63% 0.00 in 0.00 W/m2
19:59 15.8 °F 5.1 °F 30.31 in WSW 19.6 mph 10.3 mph 62% 0.00 in 0.00 W/m2
20:04 15.7 °F 5.0 °F 30.32 in WNW 15.0 mph 12.2 mph 62% 0.00 in 0.00 W/m2
20:09 15.5 °F 4.8 °F 30.32 in NW 17.3 mph 9.9 mph 62% 0.00 in 0.00 W/m2
20:14 15.5 °F 5.1 °F 30.32 in West 13.8 mph 8.0 mph 63% 0.00 in 0.00 W/m2
20:19 15.5 °F 4.8 °F 30.33 in NW 16.0 mph 11.3 mph 62% 0.00 in 0.00 W/m2
20:24 15.4 °F 5.0 °F 30.33 in West 11.5 mph 9.9 mph 63% 0.00 in 0.00 W/m2
20:29 15.3 °F 4.9 °F 30.33 in WNW 13.0 mph 6.2 mph 63% 0.00 in 0.00 W/m2
20:34 15.4 °F 5.0 °F 30.33 in WNW 16.1 mph 9.7 mph 63% 0.00 in 0.00 W/m2
20:39 15.5 °F 5.1 °F 30.33 in NW 17.3 mph 10.0 mph 63% 0.00 in 0.00 W/m2
20:44 15.4 °F 5.0 °F 30.33 in NW 16.1 mph 6.5 mph 63% 0.00 in 0.00 W/m2
20:49 15.4 °F 5.4 °F 30.34 in NNW 16.1 mph 11.1 mph 64% 0.00 in 0.00 W/m2
20:54 15.3 °F 5.6 °F 30.34 in West 19.6 mph 9.1 mph 65% 0.00 in 0.00 W/m2
20:59 15.3 °F 5.6 °F 30.34 in West 20.7 mph 7.7 mph 65% 0.00 in 0.00 W/m2
21:04 15.3 °F 5.3 °F 30.34 in West 15.0 mph 9.4 mph 64% 0.00 in 0.00 W/m2
21:09 15.3 °F 5.6 °F 30.34 in NW 17.3 mph 8.8 mph 65% 0.00 in 0.00 W/m2
21:14 15.2 °F 5.9 °F 30.34 in WNW 12.7 mph 9.2 mph 66% 0.00 in 0.00 W/m2
21:19 15.2 °F 5.9 °F 30.35 in WNW 16.1 mph 7.8 mph 66% 0.00 in 0.00 W/m2
21:24 15.1 °F 5.8 °F 30.35 in WNW 15.0 mph 10.7 mph 66% 0.00 in 0.00 W/m2
21:29 15.1 °F 5.8 °F 30.35 in WNW 16.1 mph 9.3 mph 66% 0.00 in 0.00 W/m2
21:34 15.1 °F 5.8 °F 30.35 in West 19.6 mph 12.0 mph 66% 0.00 in 0.00 W/m2
21:39 15.1 °F 5.8 °F 30.35 in West 16.1 mph 12.2 mph 66% 0.00 in 0.00 W/m2
21:44 15.1 °F 5.8 °F 30.35 in NW 18.4 mph 11.4 mph 66% 0.00 in 0.00 W/m2
21:49 15.0 °F 5.7 °F 30.35 in WNW 15.0 mph 9.6 mph 66% 0.00 in 0.00 W/m2
21:54 15.0 °F 5.7 °F 30.35 in NW 13.8 mph 11.7 mph 66% 0.00 in 0.00 W/m2
21:59 14.9 °F 5.2 °F 30.35 in West 18.4 mph 10.8 mph 65% 0.00 in 0.00 W/m2
22:04 14.8 °F 5.5 °F 30.35 in NW 12.7 mph 8.1 mph 66% 0.00 in 0.00 W/m2
22:09 14.8 °F 5.5 °F 30.35 in WNW 16.1 mph 7.9 mph 66% 0.00 in 0.00 W/m2
22:14 14.7 °F 5.7 °F 30.35 in NNW 17.3 mph 11.0 mph 67% 0.00 in 0.00 W/m2
22:19 14.7 °F 5.7 °F 30.36 in West 17.3 mph 9.0 mph 67% 0.00 in 0.00 W/m2
22:24 14.7 °F 5.7 °F 30.36 in WNW 15.0 mph 7.0 mph 67% 0.00 in 0.00 W/m2
22:29 14.7 °F 6.0 °F 30.36 in NNW 12.7 mph 8.8 mph 68% 0.00 in 0.00 W/m2
22:34 14.6 °F 5.6 °F 30.36 in WNW 17.3 mph 11.2 mph 67% 0.00 in 0.00 W/m2
22:39 14.6 °F 5.6 °F 30.36 in WNW 11.5 mph 5.9 mph 67% 0.00 in 0.00 W/m2
22:44 14.6 °F 5.6 °F 30.36 in WNW 18.4 mph 8.6 mph 67% 0.00 in 0.00 W/m2
22:49 14.5 °F 5.5 °F 30.36 in NW 15.0 mph 11.5 mph 67% 0.00 in 0.00 W/m2
22:54 14.5 °F 5.2 °F 30.36 in NW 13.8 mph 10.4 mph 66% 0.00 in 0.00 W/m2
22:59 14.4 °F 5.4 °F 30.36 in WNW 12.0 mph 6.9 mph 67% 0.00 in 0.00 W/m2
23:04 14.4 °F 5.8 °F 30.36 in NW 11.5 mph 5.8 mph 68% 0.00 in 0.00 W/m2
23:09 14.3 °F 6.0 °F 30.36 in NNW 10.4 mph 6.1 mph 69% 0.00 in 0.00 W/m2
23:14 14.3 °F 6.3 °F 30.36 in NW 16.1 mph 5.3 mph 70% 0.00 in 0.00 W/m2
23:20 14.4 °F 6.7 °F 30.36 in WNW 10.4 mph 5.9 mph 71% 0.00 in 0.00 W/m2
23:24 14.4 °F 7.0 °F 30.36 in West 11.5 mph 5.5 mph 72% 0.00 in 0.00 W/m2
23:29 14.4 °F 7.6 °F 30.36 in WNW 9.2 mph 8.3 mph 74% 0.00 in 0.00 W/m2
23:34 14.3 °F 7.8 °F 30.36 in West 11.5 mph 7.9 mph 75% 0.00 in 0.00 W/m2
23:39 14.2 °F 7.7 °F 30.36 in West 12.7 mph 8.2 mph 75% 0.00 in 0.00 W/m2
23:44 14.1 °F 7.9 °F 30.36 in WNW 10.4 mph 8.0 mph 76% 0.00 in 0.00 W/m2
23:49 14.1 °F 7.9 °F 30.36 in WNW 3.5 mph 4.0 mph 76% 0.00 in 0.00 W/m2
23:54 14.0 °F 7.2 °F 30.36 in NW 5.8 mph 4.6 mph 74% 0.00 in 0.00 W/m2
23:59 14.0 °F 6.6 °F 30.36 in WNW 11.5 mph 6.2 mph 72% 0.00 in 0.00 W/m2
Bourbonnais, Illinois, USA
Compliments of Weather Underground - 4 mb